sensor_id;sensor_type;location;lat;lon;timestamp;P1;durP1;ratioP1;P2;durP2;ratioP2
6392;SDS011;3229;42.674;23.282;2023-02-28T00:01:18;7.47;;;6.43;;
6392;SDS011;3229;42.674;23.282;2023-02-28T00:03:44;10.30;;;6.40;;
6392;SDS011;3229;42.674;23.282;2023-02-28T00:06:11;7.40;;;6.00;;
6392;SDS011;3229;42.674;23.282;2023-02-28T00:08:38;9.73;;;6.37;;
6392;SDS011;3229;42.674;23.282;2023-02-28T00:11:07;8.53;;;6.17;;
6392;SDS011;3229;42.674;23.282;2023-02-28T00:13:36;8.20;;;6.33;;
6392;SDS011;3229;42.674;23.282;2023-02-28T00:16:05;8.13;;;6.73;;
6392;SDS011;3229;42.674;23.282;2023-02-28T00:18:34;7.33;;;5.63;;
6392;SDS011;3229;42.674;23.282;2023-02-28T00:21:01;7.47;;;5.87;;
6392;SDS011;3229;42.674;23.282;2023-02-28T00:23:28;6.90;;;5.63;;
6392;SDS011;3229;42.674;23.282;2023-02-28T00:25:55;7.57;;;5.73;;
6392;SDS011;3229;42.674;23.282;2023-02-28T00:28:23;7.23;;;6.17;;
6392;SDS011;3229;42.674;23.282;2023-02-28T00:30:50;9.80;;;6.00;;
6392;SDS011;3229;42.674;23.282;2023-02-28T00:33:17;6.97;;;5.43;;
6392;SDS011;3229;42.674;23.282;2023-02-28T00:35:44;7.00;;;6.27;;
6392;SDS011;3229;42.674;23.282;2023-02-28T00:38:12;6.50;;;5.40;;
6392;SDS011;3229;42.674;23.282;2023-02-28T00:40:39;7.37;;;6.27;;
6392;SDS011;3229;42.674;23.282;2023-02-28T00:43:05;7.00;;;6.30;;
6392;SDS011;3229;42.674;23.282;2023-02-28T00:45:34;9.13;;;5.93;;
6392;SDS011;3229;42.674;23.282;2023-02-28T00:48:00;8.03;;;6.30;;
6392;SDS011;3229;42.674;23.282;2023-02-28T00:50:27;9.03;;;6.03;;
6392;SDS011;3229;42.674;23.282;2023-02-28T00:52:54;9.33;;;6.43;;
6392;SDS011;3229;42.674;23.282;2023-02-28T00:55:21;10.63;;;6.50;;
6392;SDS011;3229;42.674;23.282;2023-02-28T00:57:48;7.37;;;5.67;;
6392;SDS011;3229;42.674;23.282;2023-02-28T01:00:15;7.67;;;6.43;;
6392;SDS011;3229;42.674;23.282;2023-02-28T01:02:44;7.43;;;5.67;;
6392;SDS011;3229;42.674;23.282;2023-02-28T01:05:11;8.07;;;5.63;;
6392;SDS011;3229;42.674;23.282;2023-02-28T01:07:38;7.53;;;6.23;;
6392;SDS011;3229;42.674;23.282;2023-02-28T01:10:05;9.03;;;6.50;;
6392;SDS011;3229;42.674;23.282;2023-02-28T01:12:33;9.20;;;6.60;;
6392;SDS011;3229;42.674;23.282;2023-02-28T01:15:00;9.07;;;6.57;;
6392;SDS011;3229;42.674;23.282;2023-02-28T01:17:27;6.83;;;5.90;;
6392;SDS011;3229;42.674;23.282;2023-02-28T01:19:55;7.13;;;6.03;;
6392;SDS011;3229;42.674;23.282;2023-02-28T01:22:22;9.33;;;7.23;;
6392;SDS011;3229;42.674;23.282;2023-02-28T01:24:48;8.57;;;6.93;;
6392;SDS011;3229;42.674;23.282;2023-02-28T01:27:15;9.13;;;6.80;;
6392;SDS011;3229;42.674;23.282;2023-02-28T01:29:42;10.17;;;7.67;;
6392;SDS011;3229;42.674;23.282;2023-02-28T01:32:09;9.10;;;6.93;;
6392;SDS011;3229;42.674;23.282;2023-02-28T01:34:36;9.20;;;7.30;;
6392;SDS011;3229;42.674;23.282;2023-02-28T01:37:04;9.57;;;7.40;;
6392;SDS011;3229;42.674;23.282;2023-02-28T01:39:31;9.23;;;7.30;;
6392;SDS011;3229;42.674;23.282;2023-02-28T01:41:58;9.47;;;7.60;;
6392;SDS011;3229;42.674;23.282;2023-02-28T01:47:40;10.60;;;7.77;;
6392;SDS011;3229;42.674;23.282;2023-02-28T01:50:09;8.90;;;7.43;;
6392;SDS011;3229;42.674;23.282;2023-02-28T01:52:42;10.90;;;8.47;;
6392;SDS011;3229;42.674;23.282;2023-02-28T01:55:10;9.40;;;8.03;;
6392;SDS011;3229;42.674;23.282;2023-02-28T01:57:39;10.90;;;8.43;;
6392;SDS011;3229;42.674;23.282;2023-02-28T02:00:09;12.80;;;9.50;;
6392;SDS011;3229;42.674;23.282;2023-02-28T02:02:40;13.40;;;8.97;;
6392;SDS011;3229;42.674;23.282;2023-02-28T02:05:10;12.40;;;10.00;;
6392;SDS011;3229;42.674;23.282;2023-02-28T02:07:43;15.10;;;10.30;;
6392;SDS011;3229;42.674;23.282;2023-02-28T02:10:13;14.90;;;9.67;;
6392;SDS011;3229;42.674;23.282;2023-02-28T02:15:33;14.10;;;10.67;;
6392;SDS011;3229;42.674;23.282;2023-02-28T02:18:06;16.47;;;10.27;;
6392;SDS011;3229;42.674;23.282;2023-02-28T02:24:03;15.77;;;10.70;;
6392;SDS011;3229;42.674;23.282;2023-02-28T02:26:52;14.93;;;10.70;;
6392;SDS011;3229;42.674;23.282;2023-02-28T02:35:31;14.43;;;10.83;;
6392;SDS011;3229;42.674;23.282;2023-02-28T02:38:01;18.27;;;11.03;;
6392;SDS011;3229;42.674;23.282;2023-02-28T02:40:36;20.87;;;11.40;;
6392;SDS011;3229;42.674;23.282;2023-02-28T02:43:11;16.20;;;11.70;;
6392;SDS011;3229;42.674;23.282;2023-02-28T02:45:43;22.00;;;12.27;;
6392;SDS011;3229;42.674;23.282;2023-02-28T02:48:15;15.87;;;12.07;;
6392;SDS011;3229;42.674;23.282;2023-02-28T02:50:48;19.77;;;13.13;;
6392;SDS011;3229;42.674;23.282;2023-02-28T02:53:18;17.23;;;12.07;;
6392;SDS011;3229;42.674;23.282;2023-02-28T02:55:50;15.93;;;11.90;;
6392;SDS011;3229;42.674;23.282;2023-02-28T02:58:20;17.57;;;12.10;;
6392;SDS011;3229;42.674;23.282;2023-02-28T03:00:51;18.70;;;12.43;;
6392;SDS011;3229;42.674;23.282;2023-02-28T03:03:20;17.43;;;12.47;;
6392;SDS011;3229;42.674;23.282;2023-02-28T03:05:55;20.53;;;13.27;;
6392;SDS011;3229;42.674;23.282;2023-02-28T03:08:24;24.97;;;12.77;;
6392;SDS011;3229;42.674;23.282;2023-02-28T03:10:51;16.43;;;11.83;;
6392;SDS011;3229;42.674;23.282;2023-02-28T03:13:39;21.37;;;13.50;;
6392;SDS011;3229;42.674;23.282;2023-02-28T03:16:27;18.53;;;12.17;;
6392;SDS011;3229;42.674;23.282;2023-02-28T03:19:02;19.20;;;11.67;;
6392;SDS011;3229;42.674;23.282;2023-02-28T03:21:38;19.87;;;13.40;;
6392;SDS011;3229;42.674;23.282;2023-02-28T03:24:10;19.07;;;13.33;;
6392;SDS011;3229;42.674;23.282;2023-02-28T03:26:42;16.67;;;12.53;;
6392;SDS011;3229;42.674;23.282;2023-02-28T03:29:13;18.97;;;12.90;;
6392;SDS011;3229;42.674;23.282;2023-02-28T03:31:47;18.80;;;12.80;;
6392;SDS011;3229;42.674;23.282;2023-02-28T03:34:17;19.13;;;12.57;;
6392;SDS011;3229;42.674;23.282;2023-02-28T03:36:52;19.70;;;13.70;;
6392;SDS011;3229;42.674;23.282;2023-02-28T03:39:24;16.73;;;12.60;;
6392;SDS011;3229;42.674;23.282;2023-02-28T03:41:55;18.70;;;12.87;;
6392;SDS011;3229;42.674;23.282;2023-02-28T03:44:26;19.63;;;12.80;;
6392;SDS011;3229;42.674;23.282;2023-02-28T03:46:57;20.70;;;13.40;;
6392;SDS011;3229;42.674;23.282;2023-02-28T03:49:30;19.40;;;13.57;;
6392;SDS011;3229;42.674;23.282;2023-02-28T03:52:02;21.30;;;13.77;;
6392;SDS011;3229;42.674;23.282;2023-02-28T03:54:34;20.97;;;13.90;;
6392;SDS011;3229;42.674;23.282;2023-02-28T03:57:07;17.90;;;13.07;;
6392;SDS011;3229;42.674;23.282;2023-02-28T03:59:42;20.17;;;13.03;;
6392;SDS011;3229;42.674;23.282;2023-02-28T04:02:11;18.63;;;13.10;;
6392;SDS011;3229;42.674;23.282;2023-02-28T04:04:38;19.83;;;13.00;;
6392;SDS011;3229;42.674;23.282;2023-02-28T04:07:15;18.83;;;13.17;;
6392;SDS011;3229;42.674;23.282;2023-02-28T04:09:42;18.00;;;12.60;;
6392;SDS011;3229;42.674;23.282;2023-02-28T04:12:09;20.40;;;13.30;;
6392;SDS011;3229;42.674;23.282;2023-02-28T04:14:36;18.67;;;13.17;;
6392;SDS011;3229;42.674;23.282;2023-02-28T04:17:03;18.10;;;13.20;;
6392;SDS011;3229;42.674;23.282;2023-02-28T04:19:30;18.47;;;13.37;;
6392;SDS011;3229;42.674;23.282;2023-02-28T04:21:56;16.83;;;12.33;;
6392;SDS011;3229;42.674;23.282;2023-02-28T04:24:26;19.40;;;13.33;;
6392;SDS011;3229;42.674;23.282;2023-02-28T04:26:54;18.97;;;13.23;;
6392;SDS011;3229;42.674;23.282;2023-02-28T04:29:23;16.70;;;11.97;;
6392;SDS011;3229;42.674;23.282;2023-02-28T04:31:51;16.20;;;11.40;;
6392;SDS011;3229;42.674;23.282;2023-02-28T04:34:18;21.40;;;13.47;;
6392;SDS011;3229;42.674;23.282;2023-02-28T04:36:46;18.90;;;13.03;;
6392;SDS011;3229;42.674;23.282;2023-02-28T04:39:14;15.67;;;12.20;;
6392;SDS011;3229;42.674;23.282;2023-02-28T04:41:43;18.90;;;13.00;;
6392;SDS011;3229;42.674;23.282;2023-02-28T04:44:10;15.80;;;11.40;;
6392;SDS011;3229;42.674;23.282;2023-02-28T04:46:37;17.37;;;11.87;;
6392;SDS011;3229;42.674;23.282;2023-02-28T04:49:04;17.20;;;12.20;;
6392;SDS011;3229;42.674;23.282;2023-02-28T04:51:30;16.10;;;11.30;;
6392;SDS011;3229;42.674;23.282;2023-02-28T04:53:57;18.40;;;11.77;;
6392;SDS011;3229;42.674;23.282;2023-02-28T04:56:24;15.27;;;11.73;;
6392;SDS011;3229;42.674;23.282;2023-02-28T04:58:52;15.97;;;11.93;;
6392;SDS011;3229;42.674;23.282;2023-02-28T05:01:21;17.13;;;11.93;;
6392;SDS011;3229;42.674;23.282;2023-02-28T05:03:49;15.20;;;11.23;;
6392;SDS011;3229;42.674;23.282;2023-02-28T05:06:17;16.43;;;11.13;;
6392;SDS011;3229;42.674;23.282;2023-02-28T05:08:45;16.77;;;12.07;;
6392;SDS011;3229;42.674;23.282;2023-02-28T05:11:13;19.70;;;12.60;;
6392;SDS011;3229;42.674;23.282;2023-02-28T05:13:43;13.90;;;11.07;;
6392;SDS011;3229;42.674;23.282;2023-02-28T05:16:11;17.83;;;11.60;;
6392;SDS011;3229;42.674;23.282;2023-02-28T05:18:38;17.67;;;11.50;;
6392;SDS011;3229;42.674;23.282;2023-02-28T05:21:05;15.57;;;11.37;;
6392;SDS011;3229;42.674;23.282;2023-02-28T05:23:43;17.37;;;11.90;;
6392;SDS011;3229;42.674;23.282;2023-02-28T05:26:09;15.17;;;11.40;;
6392;SDS011;3229;42.674;23.282;2023-02-28T05:28:36;15.67;;;11.13;;
6392;SDS011;3229;42.674;23.282;2023-02-28T05:31:03;16.33;;;10.53;;
6392;SDS011;3229;42.674;23.282;2023-02-28T05:33:31;16.10;;;11.20;;
6392;SDS011;3229;42.674;23.282;2023-02-28T05:35:58;13.60;;;10.43;;
6392;SDS011;3229;42.674;23.282;2023-02-28T05:38:25;18.10;;;8.30;;
6392;SDS011;3229;42.674;23.282;2023-02-28T05:40:52;10.93;;;8.57;;
6392;SDS011;3229;42.674;23.282;2023-02-28T05:43:19;13.03;;;8.67;;
6392;SDS011;3229;42.674;23.282;2023-02-28T05:45:46;10.67;;;8.27;;
6392;SDS011;3229;42.674;23.282;2023-02-28T05:48:12;12.80;;;9.23;;
6392;SDS011;3229;42.674;23.282;2023-02-28T05:50:40;14.27;;;9.20;;
6392;SDS011;3229;42.674;23.282;2023-02-28T05:53:09;13.63;;;8.60;;
6392;SDS011;3229;42.674;23.282;2023-02-28T05:55:36;15.20;;;8.97;;
6392;SDS011;3229;42.674;23.282;2023-02-28T05:58:03;12.13;;;9.00;;
6392;SDS011;3229;42.674;23.282;2023-02-28T06:00:30;13.10;;;10.07;;
6392;SDS011;3229;42.674;23.282;2023-02-28T06:02:57;17.00;;;9.27;;
6392;SDS011;3229;42.674;23.282;2023-02-28T06:05:26;16.17;;;9.30;;
6392;SDS011;3229;42.674;23.282;2023-02-28T06:07:55;19.97;;;11.17;;
6392;SDS011;3229;42.674;23.282;2023-02-28T06:10:22;12.77;;;8.93;;
6392;SDS011;3229;42.674;23.282;2023-02-28T06:12:49;17.97;;;10.03;;
6392;SDS011;3229;42.674;23.282;2023-02-28T06:15:15;13.30;;;10.00;;
6392;SDS011;3229;42.674;23.282;2023-02-28T06:17:43;19.73;;;10.63;;
6392;SDS011;3229;42.674;23.282;2023-02-28T06:20:11;15.70;;;10.20;;
6392;SDS011;3229;42.674;23.282;2023-02-28T06:22:38;15.43;;;10.33;;
6392;SDS011;3229;42.674;23.282;2023-02-28T06:25:07;15.83;;;9.80;;
6392;SDS011;3229;42.674;23.282;2023-02-28T06:27:35;16.50;;;10.70;;
6392;SDS011;3229;42.674;23.282;2023-02-28T06:30:03;16.27;;;9.87;;
6392;SDS011;3229;42.674;23.282;2023-02-28T06:32:30;13.10;;;9.50;;
6392;SDS011;3229;42.674;23.282;2023-02-28T06:34:57;15.00;;;10.10;;
6392;SDS011;3229;42.674;23.282;2023-02-28T06:37:23;16.33;;;9.93;;
6392;SDS011;3229;42.674;23.282;2023-02-28T06:39:52;20.07;;;11.33;;
6392;SDS011;3229;42.674;23.282;2023-02-28T06:42:22;21.70;;;11.37;;
6392;SDS011;3229;42.674;23.282;2023-02-28T06:44:54;16.33;;;11.10;;
6392;SDS011;3229;42.674;23.282;2023-02-28T06:47:21;17.33;;;10.70;;
6392;SDS011;3229;42.674;23.282;2023-02-28T06:49:48;18.90;;;12.63;;
6392;SDS011;3229;42.674;23.282;2023-02-28T06:52:16;19.60;;;12.97;;
6392;SDS011;3229;42.674;23.282;2023-02-28T06:54:43;20.83;;;12.67;;
6392;SDS011;3229;42.674;23.282;2023-02-28T06:57:10;19.83;;;13.87;;
6392;SDS011;3229;42.674;23.282;2023-02-28T06:59:38;22.20;;;14.33;;
6392;SDS011;3229;42.674;23.282;2023-02-28T07:02:05;23.23;;;13.53;;
6392;SDS011;3229;42.674;23.282;2023-02-28T07:04:32;23.17;;;14.60;;
6392;SDS011;3229;42.674;23.282;2023-02-28T07:06:59;23.90;;;14.87;;
6392;SDS011;3229;42.674;23.282;2023-02-28T07:09:26;22.87;;;14.53;;
6392;SDS011;3229;42.674;23.282;2023-02-28T07:11:55;20.63;;;13.27;;
6392;SDS011;3229;42.674;23.282;2023-02-28T07:14:21;23.23;;;15.17;;
6392;SDS011;3229;42.674;23.282;2023-02-28T07:16:50;24.73;;;15.27;;
6392;SDS011;3229;42.674;23.282;2023-02-28T07:19:17;24.13;;;16.10;;
6392;SDS011;3229;42.674;23.282;2023-02-28T07:21:43;22.17;;;15.03;;
6392;SDS011;3229;42.674;23.282;2023-02-28T07:24:10;24.73;;;15.97;;
6392;SDS011;3229;42.674;23.282;2023-02-28T07:26:40;27.40;;;16.77;;
6392;SDS011;3229;42.674;23.282;2023-02-28T07:29:08;26.37;;;16.77;;
6392;SDS011;3229;42.674;23.282;2023-02-28T07:31:34;25.63;;;16.27;;
6392;SDS011;3229;42.674;23.282;2023-02-28T07:34:03;27.77;;;17.73;;
6392;SDS011;3229;42.674;23.282;2023-02-28T07:36:30;23.77;;;16.30;;
6392;SDS011;3229;42.674;23.282;2023-02-28T07:38:57;26.40;;;17.10;;
6392;SDS011;3229;42.674;23.282;2023-02-28T07:41:25;27.20;;;16.77;;
6392;SDS011;3229;42.674;23.282;2023-02-28T07:43:53;25.93;;;17.33;;
6392;SDS011;3229;42.674;23.282;2023-02-28T07:46:20;30.27;;;18.73;;
6392;SDS011;3229;42.674;23.282;2023-02-28T07:48:47;26.57;;;16.40;;
6392;SDS011;3229;42.674;23.282;2023-02-28T07:51:16;26.23;;;17.70;;
6392;SDS011;3229;42.674;23.282;2023-02-28T07:53:43;25.00;;;16.73;;
6392;SDS011;3229;42.674;23.282;2023-02-28T07:56:10;25.93;;;16.33;;
6392;SDS011;3229;42.674;23.282;2023-02-28T07:58:38;27.70;;;17.50;;
6392;SDS011;3229;42.674;23.282;2023-02-28T08:01:05;25.83;;;17.30;;
6392;SDS011;3229;42.674;23.282;2023-02-28T08:03:33;27.20;;;17.23;;
6392;SDS011;3229;42.674;23.282;2023-02-28T08:06:00;29.27;;;18.07;;
6392;SDS011;3229;42.674;23.282;2023-02-28T08:08:29;25.70;;;16.67;;
6392;SDS011;3229;42.674;23.282;2023-02-28T08:10:57;26.57;;;17.50;;
6392;SDS011;3229;42.674;23.282;2023-02-28T08:13:25;31.40;;;17.57;;
6392;SDS011;3229;42.674;23.282;2023-02-28T08:15:53;28.17;;;18.80;;
6392;SDS011;3229;42.674;23.282;2023-02-28T08:18:21;28.57;;;17.97;;
6392;SDS011;3229;42.674;23.282;2023-02-28T08:20:48;27.57;;;17.53;;
6392;SDS011;3229;42.674;23.282;2023-02-28T08:23:15;29.60;;;19.37;;
6392;SDS011;3229;42.674;23.282;2023-02-28T08:25:43;26.90;;;18.80;;
6392;SDS011;3229;42.674;23.282;2023-02-28T08:28:10;26.50;;;17.80;;
6392;SDS011;3229;42.674;23.282;2023-02-28T08:30:37;28.43;;;18.40;;
6392;SDS011;3229;42.674;23.282;2023-02-28T08:33:06;28.27;;;18.50;;
6392;SDS011;3229;42.674;23.282;2023-02-28T08:35:35;29.93;;;18.87;;
6392;SDS011;3229;42.674;23.282;2023-02-28T08:38:02;24.23;;;17.63;;
6392;SDS011;3229;42.674;23.282;2023-02-28T08:54:51;30.27;;;18.57;;
6392;SDS011;3229;42.674;23.282;2023-02-28T08:57:18;26.57;;;18.57;;
6392;SDS011;3229;42.674;23.282;2023-02-28T08:59:45;26.33;;;17.97;;
6392;SDS011;3229;42.674;23.282;2023-02-28T09:02:12;32.20;;;19.23;;
6392;SDS011;3229;42.674;23.282;2023-02-28T09:04:40;26.07;;;17.37;;
6392;SDS011;3229;42.674;23.282;2023-02-28T09:07:07;27.60;;;18.30;;
6392;SDS011;3229;42.674;23.282;2023-02-28T09:09:34;29.50;;;18.63;;
6392;SDS011;3229;42.674;23.282;2023-02-28T09:12:02;31.77;;;18.20;;
6392;SDS011;3229;42.674;23.282;2023-02-28T09:14:30;28.50;;;19.50;;
6392;SDS011;3229;42.674;23.282;2023-02-28T09:16:57;25.50;;;18.67;;
6392;SDS011;3229;42.674;23.282;2023-02-28T09:19:24;28.87;;;18.57;;
6392;SDS011;3229;42.674;23.282;2023-02-28T09:21:51;29.43;;;18.80;;
6392;SDS011;3229;42.674;23.282;2023-02-28T09:24:17;24.90;;;17.73;;
6392;SDS011;3229;42.674;23.282;2023-02-28T09:26:45;33.80;;;19.00;;
6392;SDS011;3229;42.674;23.282;2023-02-28T09:29:13;27.57;;;18.70;;
6392;SDS011;3229;42.674;23.282;2023-02-28T09:31:41;29.90;;;20.00;;
6392;SDS011;3229;42.674;23.282;2023-02-28T09:34:08;31.10;;;18.33;;
6392;SDS011;3229;42.674;23.282;2023-02-28T09:36:35;32.67;;;18.87;;
6392;SDS011;3229;42.674;23.282;2023-02-28T09:39:03;30.00;;;18.50;;
6392;SDS011;3229;42.674;23.282;2023-02-28T09:41:31;31.53;;;19.13;;
6392;SDS011;3229;42.674;23.282;2023-02-28T09:44:05;30.70;;;19.17;;
6392;SDS011;3229;42.674;23.282;2023-02-28T09:46:41;30.90;;;19.13;;
6392;SDS011;3229;42.674;23.282;2023-02-28T09:49:12;24.13;;;17.93;;
6392;SDS011;3229;42.674;23.282;2023-02-28T09:51:46;27.30;;;18.23;;
6392;SDS011;3229;42.674;23.282;2023-02-28T09:54:17;31.13;;;19.13;;
6392;SDS011;3229;42.674;23.282;2023-02-28T09:56:48;40.37;;;19.73;;
6392;SDS011;3229;42.674;23.282;2023-02-28T09:59:22;30.77;;;17.87;;
6392;SDS011;3229;42.674;23.282;2023-02-28T10:02:02;37.40;;;18.80;;
6392;SDS011;3229;42.674;23.282;2023-02-28T10:04:41;31.80;;;19.13;;
6392;SDS011;3229;42.674;23.282;2023-02-28T10:07:18;29.90;;;19.83;;
6392;SDS011;3229;42.674;23.282;2023-02-28T10:10:03;32.37;;;18.70;;
6392;SDS011;3229;42.674;23.282;2023-02-28T10:12:37;32.03;;;19.90;;
6392;SDS011;3229;42.674;23.282;2023-02-28T10:15:12;29.63;;;18.97;;
6392;SDS011;3229;42.674;23.282;2023-02-28T10:17:42;27.27;;;18.63;;
6392;SDS011;3229;42.674;23.282;2023-02-28T10:20:13;25.13;;;19.60;;
6392;SDS011;3229;42.674;23.282;2023-02-28T10:26:28;36.00;;;20.70;;
6392;SDS011;3229;42.674;23.282;2023-02-28T10:28:56;27.37;;;19.60;;
6392;SDS011;3229;42.674;23.282;2023-02-28T10:31:23;33.17;;;20.43;;
6392;SDS011;3229;42.674;23.282;2023-02-28T10:33:51;27.17;;;18.77;;
6392;SDS011;3229;42.674;23.282;2023-02-28T10:36:19;31.63;;;20.43;;
6392;SDS011;3229;42.674;23.282;2023-02-28T10:38:48;29.00;;;19.73;;
6392;SDS011;3229;42.674;23.282;2023-02-28T10:41:16;32.13;;;18.77;;
6392;SDS011;3229;42.674;23.282;2023-02-28T10:43:53;31.80;;;18.83;;
6392;SDS011;3229;42.674;23.282;2023-02-28T10:46:40;28.43;;;19.03;;
6392;SDS011;3229;42.674;23.282;2023-02-28T10:49:13;26.83;;;17.13;;
6392;SDS011;3229;42.674;23.282;2023-02-28T10:51:44;26.03;;;16.80;;
6392;SDS011;3229;42.674;23.282;2023-02-28T10:54:16;22.37;;;14.97;;
6392;SDS011;3229;42.674;23.282;2023-02-28T10:56:45;22.53;;;15.70;;
6392;SDS011;3229;42.674;23.282;2023-02-28T10:59:27;22.10;;;14.90;;
6392;SDS011;3229;42.674;23.282;2023-02-28T11:01:56;24.13;;;13.53;;
6392;SDS011;3229;42.674;23.282;2023-02-28T11:04:36;24.80;;;14.47;;
6392;SDS011;3229;42.674;23.282;2023-02-28T11:07:05;22.10;;;13.47;;
6392;SDS011;3229;42.674;23.282;2023-02-28T11:09:44;20.87;;;13.47;;
6392;SDS011;3229;42.674;23.282;2023-02-28T11:12:19;17.90;;;12.80;;
6392;SDS011;3229;42.674;23.282;2023-02-28T11:14:49;18.33;;;12.33;;
6392;SDS011;3229;42.674;23.282;2023-02-28T11:17:19;27.57;;;13.07;;
6392;SDS011;3229;42.674;23.282;2023-02-28T11:19:51;20.27;;;11.27;;
6392;SDS011;3229;42.674;23.282;2023-02-28T11:22:22;21.83;;;11.73;;
6392;SDS011;3229;42.674;23.282;2023-02-28T11:24:54;18.83;;;11.63;;
6392;SDS011;3229;42.674;23.282;2023-02-28T11:30:25;13.43;;;10.57;;
6392;SDS011;3229;42.674;23.282;2023-02-28T11:32:54;14.63;;;10.13;;
6392;SDS011;3229;42.674;23.282;2023-02-28T11:35:24;19.10;;;9.80;;
6392;SDS011;3229;42.674;23.282;2023-02-28T11:37:54;18.93;;;10.63;;
6392;SDS011;3229;42.674;23.282;2023-02-28T11:40:23;15.50;;;10.30;;
6392;SDS011;3229;42.674;23.282;2023-02-28T11:43:01;17.73;;;9.57;;
6392;SDS011;3229;42.674;23.282;2023-02-28T11:45:43;12.77;;;9.77;;
6392;SDS011;3229;42.674;23.282;2023-02-28T11:48:21;18.33;;;10.03;;
6392;SDS011;3229;42.674;23.282;2023-02-28T11:51:00;13.47;;;9.33;;
6392;SDS011;3229;42.674;23.282;2023-02-28T11:53:41;13.40;;;9.20;;
6392;SDS011;3229;42.674;23.282;2023-02-28T11:56:19;15.37;;;9.50;;
6392;SDS011;3229;42.674;23.282;2023-02-28T11:58:54;16.23;;;9.83;;
6392;SDS011;3229;42.674;23.282;2023-02-28T12:01:35;20.73;;;9.37;;
6392;SDS011;3229;42.674;23.282;2023-02-28T12:04:17;20.33;;;9.97;;
6392;SDS011;3229;42.674;23.282;2023-02-28T12:06:55;17.17;;;9.47;;
6392;SDS011;3229;42.674;23.282;2023-02-28T12:09:34;15.50;;;8.77;;
6392;SDS011;3229;42.674;23.282;2023-02-28T12:12:13;19.90;;;9.70;;
6392;SDS011;3229;42.674;23.282;2023-02-28T12:14:55;20.87;;;9.93;;
6392;SDS011;3229;42.674;23.282;2023-02-28T12:17:43;17.73;;;9.53;;
6392;SDS011;3229;42.674;23.282;2023-02-28T12:20:24;16.17;;;8.97;;
6392;SDS011;3229;42.674;23.282;2023-02-28T12:22:58;15.63;;;9.03;;
6392;SDS011;3229;42.674;23.282;2023-02-28T12:25:45;14.93;;;8.93;;
6392;SDS011;3229;42.674;23.282;2023-02-28T12:28:21;20.07;;;9.40;;
6392;SDS011;3229;42.674;23.282;2023-02-28T12:30:53;17.93;;;9.83;;
6392;SDS011;3229;42.674;23.282;2023-02-28T12:33:24;15.83;;;9.40;;
6392;SDS011;3229;42.674;23.282;2023-02-28T12:35:57;14.37;;;9.07;;
6392;SDS011;3229;42.674;23.282;2023-02-28T12:38:29;18.00;;;9.67;;
6392;SDS011;3229;42.674;23.282;2023-02-28T12:41:03;18.67;;;10.10;;
6392;SDS011;3229;42.674;23.282;2023-02-28T12:43:33;21.37;;;9.73;;
6392;SDS011;3229;42.674;23.282;2023-02-28T12:46:05;12.83;;;9.60;;
6392;SDS011;3229;42.674;23.282;2023-02-28T12:48:37;14.33;;;8.87;;
6392;SDS011;3229;42.674;23.282;2023-02-28T12:51:07;16.57;;;9.83;;
6392;SDS011;3229;42.674;23.282;2023-02-28T12:53:38;15.60;;;9.77;;
6392;SDS011;3229;42.674;23.282;2023-02-28T12:56:16;13.17;;;8.87;;
6392;SDS011;3229;42.674;23.282;2023-02-28T12:58:49;17.07;;;10.23;;
6392;SDS011;3229;42.674;23.282;2023-02-28T13:01:26;15.20;;;9.10;;
6392;SDS011;3229;42.674;23.282;2023-02-28T13:04:16;15.47;;;10.00;;
6392;SDS011;3229;42.674;23.282;2023-02-28T13:06:58;13.53;;;9.43;;
6392;SDS011;3229;42.674;23.282;2023-02-28T13:09:38;14.17;;;9.77;;
6392;SDS011;3229;42.674;23.282;2023-02-28T13:12:12;15.23;;;9.53;;
6392;SDS011;3229;42.674;23.282;2023-02-28T13:14:40;16.87;;;9.10;;
6392;SDS011;3229;42.674;23.282;2023-02-28T13:17:11;16.90;;;9.37;;
6392;SDS011;3229;42.674;23.282;2023-02-28T13:19:42;19.53;;;9.03;;
6392;SDS011;3229;42.674;23.282;2023-02-28T13:22:16;13.50;;;9.43;;
6392;SDS011;3229;42.674;23.282;2023-02-28T13:24:48;16.20;;;9.87;;
6392;SDS011;3229;42.674;23.282;2023-02-28T13:29:59;17.73;;;9.70;;
6392;SDS011;3229;42.674;23.282;2023-02-28T13:35:15;11.00;;;8.30;;
6392;SDS011;3229;42.674;23.282;2023-02-28T13:44:05;13.57;;;8.93;;
6392;SDS011;3229;42.674;23.282;2023-02-28T13:46:34;17.00;;;9.77;;
6392;SDS011;3229;42.674;23.282;2023-02-28T13:49:18;14.13;;;8.57;;
6392;SDS011;3229;42.674;23.282;2023-02-28T13:51:46;12.17;;;9.00;;
6392;SDS011;3229;42.674;23.282;2023-02-28T13:54:19;15.80;;;9.63;;
6392;SDS011;3229;42.674;23.282;2023-02-28T13:57:04;13.50;;;9.00;;
6392;SDS011;3229;42.674;23.282;2023-02-28T13:59:48;16.37;;;9.83;;
6392;SDS011;3229;42.674;23.282;2023-02-28T14:02:33;17.23;;;9.23;;
6392;SDS011;3229;42.674;23.282;2023-02-28T14:05:13;11.13;;;7.87;;
6392;SDS011;3229;42.674;23.282;2023-02-28T14:07:43;14.07;;;8.00;;
6392;SDS011;3229;42.674;23.282;2023-02-28T14:10:21;14.73;;;8.57;;
6392;SDS011;3229;42.674;23.282;2023-02-28T14:12:58;14.20;;;8.23;;
6392;SDS011;3229;42.674;23.282;2023-02-28T14:18:25;17.47;;;8.17;;
6392;SDS011;3229;42.674;23.282;2023-02-28T14:21:01;18.27;;;8.40;;
6392;SDS011;3229;42.674;23.282;2023-02-28T14:23:52;15.27;;;8.70;;
6392;SDS011;3229;42.674;23.282;2023-02-28T14:27:03;14.43;;;8.70;;
6392;SDS011;3229;42.674;23.282;2023-02-28T14:32:37;14.00;;;8.47;;
6392;SDS011;3229;42.674;23.282;2023-02-28T14:35:18;15.60;;;8.20;;
6392;SDS011;3229;42.674;23.282;2023-02-28T14:37:56;12.17;;;7.97;;
6392;SDS011;3229;42.674;23.282;2023-02-28T14:40:28;18.37;;;8.83;;
6392;SDS011;3229;42.674;23.282;2023-02-28T14:42:59;11.63;;;7.80;;
6392;SDS011;3229;42.674;23.282;2023-02-28T14:45:29;14.40;;;8.17;;
6392;SDS011;3229;42.674;23.282;2023-02-28T14:47:58;14.77;;;8.17;;
6392;SDS011;3229;42.674;23.282;2023-02-28T14:50:29;18.70;;;8.93;;
6392;SDS011;3229;42.674;23.282;2023-02-28T14:52:57;15.73;;;9.70;;
6392;SDS011;3229;42.674;23.282;2023-02-28T14:55:26;11.23;;;8.00;;
6392;SDS011;3229;42.674;23.282;2023-02-28T14:57:55;15.40;;;8.60;;
6392;SDS011;3229;42.674;23.282;2023-02-28T15:00:24;14.87;;;7.83;;
6392;SDS011;3229;42.674;23.282;2023-02-28T15:02:53;14.33;;;8.73;;
6392;SDS011;3229;42.674;23.282;2023-02-28T15:05:26;14.07;;;8.50;;
6392;SDS011;3229;42.674;23.282;2023-02-28T15:08:01;15.13;;;8.83;;
6392;SDS011;3229;42.674;23.282;2023-02-28T15:10:37;17.13;;;8.27;;
6392;SDS011;3229;42.674;23.282;2023-02-28T15:16:43;16.23;;;8.48;;
6392;SDS011;3229;42.674;23.282;2023-02-28T15:19:13;19.77;;;8.37;;
6392;SDS011;3229;42.674;23.282;2023-02-28T15:21:51;12.87;;;8.50;;
6392;SDS011;3229;42.674;23.282;2023-02-28T15:24:24;14.53;;;8.33;;
6392;SDS011;3229;42.674;23.282;2023-02-28T15:26:58;15.50;;;7.80;;
6392;SDS011;3229;42.674;23.282;2023-02-28T15:29:28;11.60;;;7.43;;
6392;SDS011;3229;42.674;23.282;2023-02-28T15:32:00;19.00;;;8.60;;
6392;SDS011;3229;42.674;23.282;2023-02-28T15:34:29;14.97;;;7.27;;
6392;SDS011;3229;42.674;23.282;2023-02-28T15:37:05;20.10;;;8.33;;
6392;SDS011;3229;42.674;23.282;2023-02-28T15:39:51;13.33;;;7.07;;
6392;SDS011;3229;42.674;23.282;2023-02-28T15:42:19;14.50;;;8.23;;
6392;SDS011;3229;42.674;23.282;2023-02-28T15:44:47;9.37;;;7.40;;
6392;SDS011;3229;42.674;23.282;2023-02-28T15:47:15;10.77;;;6.97;;
6392;SDS011;3229;42.674;23.282;2023-02-28T15:49:45;12.63;;;7.73;;
6392;SDS011;3229;42.674;23.282;2023-02-28T15:52:16;13.67;;;7.57;;
6392;SDS011;3229;42.674;23.282;2023-02-28T15:54:45;11.47;;;7.63;;
6392;SDS011;3229;42.674;23.282;2023-02-28T15:57:13;11.33;;;7.53;;
6392;SDS011;3229;42.674;23.282;2023-02-28T15:59:45;13.03;;;6.80;;